sensor_id;sensor_type;location;lat;lon;timestamp;pressure;altitude;pressure_sealevel;temperature;humidity
15604;BME280;7902;49.042;9.092;2023-05-10T00:00:08;98430.41;;;19.50;63.54
15604;BME280;7902;49.042;9.092;2023-05-10T00:02:34;98430.78;;;19.47;63.43
15604;BME280;7902;49.042;9.092;2023-05-10T00:05:01;98426.97;;;19.42;63.41
15604;BME280;7902;49.042;9.092;2023-05-10T00:07:27;98421.19;;;19.38;63.63
15604;BME280;7902;49.042;9.092;2023-05-10T00:09:53;98423.94;;;19.30;63.79
15604;BME280;7902;49.042;9.092;2023-05-10T00:12:19;98426.53;;;19.38;63.49
15604;BME280;7902;49.042;9.092;2023-05-10T00:14:45;98431.56;;;19.33;63.53
15604;BME280;7902;49.042;9.092;2023-05-10T00:17:10;98426.78;;;19.43;62.78
15604;BME280;7902;49.042;9.092;2023-05-10T00:19:36;98436.09;;;19.47;62.97
15604;BME280;7902;49.042;9.092;2023-05-10T00:22:02;98437.44;;;19.43;62.80
15604;BME280;7902;49.042;9.092;2023-05-10T00:24:28;98439.28;;;19.43;62.94
15604;BME280;7902;49.042;9.092;2023-05-10T00:26:54;98438.53;;;19.34;63.45
15604;BME280;7902;49.042;9.092;2023-05-10T00:29:20;98434.94;;;19.27;63.23
15604;BME280;7902;49.042;9.092;2023-05-10T00:31:46;98431.66;;;19.25;63.26
15604;BME280;7902;49.042;9.092;2023-05-10T00:34:12;98430.38;;;19.21;63.34
15604;BME280;7902;49.042;9.092;2023-05-10T00:36:38;98433.56;;;19.16;64.36
15604;BME280;7902;49.042;9.092;2023-05-10T00:39:04;98432.56;;;19.17;63.76
15604;BME280;7902;49.042;9.092;2023-05-10T00:41:30;98434.88;;;19.20;64.01
15604;BME280;7902;49.042;9.092;2023-05-10T00:43:58;98437.97;;;19.24;63.18
15604;BME280;7902;49.042;9.092;2023-05-10T00:46:24;98431.63;;;19.10;63.57
15604;BME280;7902;49.042;9.092;2023-05-10T00:48:50;98431.38;;;19.20;63.53
15604;BME280;7902;49.042;9.092;2023-05-10T00:51:17;98423.72;;;19.17;63.53
15604;BME280;7902;49.042;9.092;2023-05-10T00:53:44;98430.44;;;19.27;63.51
15604;BME280;7902;49.042;9.092;2023-05-10T00:56:11;98434.03;;;19.20;63.14
15604;BME280;7902;49.042;9.092;2023-05-10T00:58:39;98441.81;;;19.21;63.19
15604;BME280;7902;49.042;9.092;2023-05-10T01:01:05;98450.34;;;19.17;63.11
15604;BME280;7902;49.042;9.092;2023-05-10T01:03:32;98455.31;;;19.20;63.04
15604;BME280;7902;49.042;9.092;2023-05-10T01:05:58;98454.59;;;19.11;62.81
15604;BME280;7902;49.042;9.092;2023-05-10T01:08:24;98462.09;;;19.08;63.47
15604;BME280;7902;49.042;9.092;2023-05-10T01:10:51;98460.06;;;19.10;63.23
15604;BME280;7902;49.042;9.092;2023-05-10T01:13:34;98454.59;;;18.89;63.44
15604;BME280;7902;49.042;9.092;2023-05-10T01:16:01;98457.91;;;18.91;63.42
15604;BME280;7902;49.042;9.092;2023-05-10T01:18:29;98456.78;;;18.85;63.59
15604;BME280;7902;49.042;9.092;2023-05-10T01:23:44;98454.69;;;18.80;62.73
15604;BME280;7902;49.042;9.092;2023-05-10T01:29:23;98456.22;;;18.75;63.42
15604;BME280;7902;49.042;9.092;2023-05-10T01:34:35;98458.41;;;18.71;63.21
15604;BME280;7902;49.042;9.092;2023-05-10T01:37:11;98468.75;;;18.66;63.47
15604;BME280;7902;49.042;9.092;2023-05-10T01:42:10;98462.25;;;18.69;62.61
15604;BME280;7902;49.042;9.092;2023-05-10T01:44:50;98472.69;;;18.70;62.55
15604;BME280;7902;49.042;9.092;2023-05-10T01:50:03;98479.75;;;18.63;63.05
15604;BME280;7902;49.042;9.092;2023-05-10T01:52:33;98473.06;;;18.67;62.81
15604;BME280;7902;49.042;9.092;2023-05-10T01:55:03;98479.75;;;18.63;62.70
15604;BME280;7902;49.042;9.092;2023-05-10T01:57:34;98474.31;;;18.57;63.09
15604;BME280;7902;49.042;9.092;2023-05-10T02:00:04;98480.44;;;18.57;62.80
15604;BME280;7902;49.042;9.092;2023-05-10T02:02:34;98479.75;;;18.63;62.74
15604;BME280;7902;49.042;9.092;2023-05-10T02:05:04;98473.13;;;18.59;62.40
15604;BME280;7902;49.042;9.092;2023-05-10T02:07:31;98477.81;;;18.49;63.32
15604;BME280;7902;49.042;9.092;2023-05-10T02:10:00;98483.78;;;18.51;63.25
15604;BME280;7902;49.042;9.092;2023-05-10T02:12:28;98487.44;;;18.58;62.93
15604;BME280;7902;49.042;9.092;2023-05-10T02:14:54;98486.78;;;18.48;63.07
15604;BME280;7902;49.042;9.092;2023-05-10T02:17:20;98485.13;;;18.47;63.21
15604;BME280;7902;49.042;9.092;2023-05-10T02:19:47;98494.41;;;18.51;63.08
15604;BME280;7902;49.042;9.092;2023-05-10T02:22:14;98486.75;;;18.56;62.60
15604;BME280;7902;49.042;9.092;2023-05-10T02:24:41;98493.41;;;18.52;62.90
15604;BME280;7902;49.042;9.092;2023-05-10T02:27:09;98495.66;;;18.40;62.85
15604;BME280;7902;49.042;9.092;2023-05-10T02:29:36;98497.44;;;18.48;62.32
15604;BME280;7902;49.042;9.092;2023-05-10T02:32:03;98495.16;;;18.37;63.12
15604;BME280;7902;49.042;9.092;2023-05-10T02:34:29;98495.66;;;18.40;62.77
15604;BME280;7902;49.042;9.092;2023-05-10T02:36:56;98499.31;;;18.39;63.13
15604;BME280;7902;49.042;9.092;2023-05-10T02:39:23;98497.03;;;18.28;62.57
15604;BME280;7902;49.042;9.092;2023-05-10T02:41:51;98508.50;;;18.29;63.12
15604;BME280;7902;49.042;9.092;2023-05-10T02:44:19;98510.63;;;18.33;63.03
15604;BME280;7902;49.042;9.092;2023-05-10T02:46:46;98504.31;;;18.34;62.75
15604;BME280;7902;49.042;9.092;2023-05-10T02:49:12;98512.13;;;18.36;62.98
15604;BME280;7902;49.042;9.092;2023-05-10T02:51:41;98507.28;;;18.39;63.24
15604;BME280;7902;49.042;9.092;2023-05-10T02:54:12;98514.28;;;18.32;63.18
15604;BME280;7902;49.042;9.092;2023-05-10T02:56:47;98508.13;;;18.40;62.84
15604;BME280;7902;49.042;9.092;2023-05-10T02:59:13;98509.94;;;18.39;63.26
15604;BME280;7902;49.042;9.092;2023-05-10T03:01:39;98514.38;;;18.16;64.08
15604;BME280;7902;49.042;9.092;2023-05-10T03:04:05;98515.53;;;18.22;63.62
15604;BME280;7902;49.042;9.092;2023-05-10T03:06:31;98510.28;;;18.36;63.13
15604;BME280;7902;49.042;9.092;2023-05-10T03:08:57;98506.84;;;18.28;63.35
15604;BME280;7902;49.042;9.092;2023-05-10T03:16:47;98500.00;;;18.33;63.24
15604;BME280;7902;49.042;9.092;2023-05-10T03:22:10;98512.81;;;18.30;63.59
15604;BME280;7902;49.042;9.092;2023-05-10T03:24:40;98512.28;;;18.34;63.58
15604;BME280;7902;49.042;9.092;2023-05-10T03:27:07;98511.69;;;18.24;63.83
15604;BME280;7902;49.042;9.092;2023-05-10T03:29:33;98518.03;;;18.15;64.36
15604;BME280;7902;49.042;9.092;2023-05-10T03:32:00;98522.47;;;18.31;63.89
15604;BME280;7902;49.042;9.092;2023-05-10T03:34:26;98527.16;;;18.21;64.50
15604;BME280;7902;49.042;9.092;2023-05-10T03:36:52;98534.72;;;18.32;64.17
15604;BME280;7902;49.042;9.092;2023-05-10T03:39:18;98531.50;;;18.14;65.18
15604;BME280;7902;49.042;9.092;2023-05-10T03:41:44;98527.47;;;18.26;65.13
15604;BME280;7902;49.042;9.092;2023-05-10T03:44:10;98539.41;;;18.30;64.69
15604;BME280;7902;49.042;9.092;2023-05-10T03:46:36;98539.72;;;18.35;64.26
15604;BME280;7902;49.042;9.092;2023-05-10T03:49:02;98544.09;;;18.20;65.27
15604;BME280;7902;49.042;9.092;2023-05-10T03:51:28;98535.13;;;18.21;64.73
15604;BME280;7902;49.042;9.092;2023-05-10T03:53:54;98535.06;;;18.29;64.89
15604;BME280;7902;49.042;9.092;2023-05-10T03:56:21;98537.13;;;18.19;64.73
15604;BME280;7902;49.042;9.092;2023-05-10T03:58:47;98543.47;;;18.10;65.66
15604;BME280;7902;49.042;9.092;2023-05-10T04:01:12;98541.38;;;18.28;64.84
15604;BME280;7902;49.042;9.092;2023-05-10T04:03:38;98537.91;;;18.27;64.73
15604;BME280;7902;49.042;9.092;2023-05-10T04:06:04;98543.44;;;18.18;65.08
15604;BME280;7902;49.042;9.092;2023-05-10T04:08:31;98539.44;;;18.22;64.78
15604;BME280;7902;49.042;9.092;2023-05-10T04:11:10;98540.91;;;18.24;64.50
15604;BME280;7902;49.042;9.092;2023-05-10T04:13:36;98543.09;;;18.21;64.73
15604;BME280;7902;49.042;9.092;2023-05-10T04:16:02;98547.69;;;18.27;64.34
15604;BME280;7902;49.042;9.092;2023-05-10T04:18:28;98540.38;;;18.29;64.53
15604;BME280;7902;49.042;9.092;2023-05-10T04:20:54;98547.84;;;18.33;64.00
15604;BME280;7902;49.042;9.092;2023-05-10T04:23:20;98541.59;;;18.18;64.67
15604;BME280;7902;49.042;9.092;2023-05-10T04:25:46;98542.94;;;18.14;64.86
15604;BME280;7902;49.042;9.092;2023-05-10T04:28:12;98544.59;;;18.15;64.76
15604;BME280;7902;49.042;9.092;2023-05-10T04:30:38;98538.88;;;18.34;63.88
15604;BME280;7902;49.042;9.092;2023-05-10T04:33:04;98544.94;;;18.20;64.25
15604;BME280;7902;49.042;9.092;2023-05-10T04:35:30;98546.91;;;18.18;64.36
15604;BME280;7902;49.042;9.092;2023-05-10T04:37:56;98539.84;;;18.03;64.58
15604;BME280;7902;49.042;9.092;2023-05-10T04:40:21;98551.31;;;18.03;64.96
15604;BME280;7902;49.042;9.092;2023-05-10T04:42:47;98552.28;;;18.10;64.24
15604;BME280;7902;49.042;9.092;2023-05-10T04:45:13;98557.44;;;18.04;64.30
15604;BME280;7902;49.042;9.092;2023-05-10T04:47:42;98561.38;;;18.16;64.33
15604;BME280;7902;49.042;9.092;2023-05-10T04:50:08;98564.69;;;18.18;64.44
15604;BME280;7902;49.042;9.092;2023-05-10T04:52:34;98558.72;;;18.16;63.89
15604;BME280;7902;49.042;9.092;2023-05-10T04:55:00;98564.69;;;18.18;63.52
15604;BME280;7902;49.042;9.092;2023-05-10T04:57:26;98570.19;;;18.16;64.00
15604;BME280;7902;49.042;9.092;2023-05-10T04:59:52;98573.84;;;18.15;63.98
15604;BME280;7902;49.042;9.092;2023-05-10T05:02:18;98578.28;;;18.23;63.53
15604;BME280;7902;49.042;9.092;2023-05-10T05:04:44;98577.31;;;18.16;63.63
15604;BME280;7902;49.042;9.092;2023-05-10T05:07:10;98579.16;;;18.15;63.57
15604;BME280;7902;49.042;9.092;2023-05-10T05:09:36;98575.19;;;18.11;64.30
15604;BME280;7902;49.042;9.092;2023-05-10T05:12:02;98586.97;;;18.09;64.08
15604;BME280;7902;49.042;9.092;2023-05-10T05:14:28;98578.69;;;18.12;63.97
15604;BME280;7902;49.042;9.092;2023-05-10T05:16:53;98588.31;;;18.13;64.34
15604;BME280;7902;49.042;9.092;2023-05-10T05:19:19;98577.16;;;18.17;64.37
15604;BME280;7902;49.042;9.092;2023-05-10T05:21:45;98578.88;;;18.02;64.57
15604;BME280;7902;49.042;9.092;2023-05-10T05:24:11;98589.13;;;18.13;64.59
15604;BME280;7902;49.042;9.092;2023-05-10T05:26:38;98593.63;;;18.13;64.35
15604;BME280;7902;49.042;9.092;2023-05-10T05:29:04;98600.72;;;18.20;63.85
15604;BME280;7902;49.042;9.092;2023-05-10T05:31:30;98597.72;;;18.31;63.92
15604;BME280;7902;49.042;9.092;2023-05-10T05:33:56;98604.03;;;18.22;64.41
15604;BME280;7902;49.042;9.092;2023-05-10T05:36:22;98604.19;;;18.29;64.29
15604;BME280;7902;49.042;9.092;2023-05-10T05:38:48;98600.06;;;18.26;64.30
15604;BME280;7902;49.042;9.092;2023-05-10T05:41:14;98600.31;;;18.39;63.84
15604;BME280;7902;49.042;9.092;2023-05-10T05:43:39;98609.81;;;18.34;64.17
15604;BME280;7902;49.042;9.092;2023-05-10T05:46:05;98608.47;;;18.38;63.68
15604;BME280;7902;49.042;9.092;2023-05-10T05:48:31;98609.78;;;18.42;63.44
15604;BME280;7902;49.042;9.092;2023-05-10T05:50:57;98601.53;;;18.29;64.51
15604;BME280;7902;49.042;9.092;2023-05-10T05:53:23;98601.28;;;18.47;63.69
15604;BME280;7902;49.042;9.092;2023-05-10T05:55:57;98604.44;;;18.42;64.17
15604;BME280;7902;49.042;9.092;2023-05-10T05:58:26;98605.75;;;18.46;64.16
15604;BME280;7902;49.042;9.092;2023-05-10T06:00:53;98604.44;;;18.58;63.52
15604;BME280;7902;49.042;9.092;2023-05-10T06:03:19;98617.06;;;18.48;64.53
15604;BME280;7902;49.042;9.092;2023-05-10T06:05:46;98611.09;;;18.54;63.56
15604;BME280;7902;49.042;9.092;2023-05-10T06:08:12;98609.22;;;18.63;63.74
15604;BME280;7902;49.042;9.092;2023-05-10T06:10:37;98612.34;;;18.66;63.52
15604;BME280;7902;49.042;9.092;2023-05-10T06:13:03;98614.69;;;18.61;64.11
15604;BME280;7902;49.042;9.092;2023-05-10T06:15:29;98610.44;;;18.44;63.68
15604;BME280;7902;49.042;9.092;2023-05-10T06:17:56;98610.25;;;18.54;63.62
15604;BME280;7902;49.042;9.092;2023-05-10T06:20:22;98614.69;;;18.61;63.54
15604;BME280;7902;49.042;9.092;2023-05-10T06:22:47;98614.53;;;18.63;63.42
15604;BME280;7902;49.042;9.092;2023-05-10T06:25:13;98615.84;;;18.67;63.29
15604;BME280;7902;49.042;9.092;2023-05-10T06:27:40;98614.38;;;18.64;63.95
15604;BME280;7902;49.042;9.092;2023-05-10T06:30:06;98621.63;;;18.70;63.08
15604;BME280;7902;49.042;9.092;2023-05-10T06:32:33;98622.16;;;18.66;63.29
15604;BME280;7902;49.042;9.092;2023-05-10T06:34:59;98630.66;;;18.61;63.52
15604;BME280;7902;49.042;9.092;2023-05-10T06:37:25;98630.66;;;18.61;63.46
15604;BME280;7902;49.042;9.092;2023-05-10T06:39:51;98624.66;;;18.67;63.01
15604;BME280;7902;49.042;9.092;2023-05-10T06:42:17;98630.84;;;18.60;63.36
15604;BME280;7902;49.042;9.092;2023-05-10T06:44:43;98627.16;;;18.69;62.65
15604;BME280;7902;49.042;9.092;2023-05-10T06:47:09;98633.19;;;18.55;63.30
15604;BME280;7902;49.042;9.092;2023-05-10T06:49:35;98633.97;;;18.63;62.66
15604;BME280;7902;49.042;9.092;2023-05-10T06:52:01;98639.31;;;18.55;62.76
15604;BME280;7902;49.042;9.092;2023-05-10T06:54:27;98639.78;;;18.67;63.02
15604;BME280;7902;49.042;9.092;2023-05-10T06:56:52;98645.44;;;18.64;62.52
15604;BME280;7902;49.042;9.092;2023-05-10T06:59:18;98649.47;;;18.60;62.87
15604;BME280;7902;49.042;9.092;2023-05-10T07:01:45;98652.13;;;18.60;63.25
15604;BME280;7902;49.042;9.092;2023-05-10T07:04:10;98644.44;;;18.65;63.06
15604;BME280;7902;49.042;9.092;2023-05-10T07:06:36;98647.91;;;18.65;62.86
15604;BME280;7902;49.042;9.092;2023-05-10T07:09:02;98646.06;;;18.74;62.49
15604;BME280;7902;49.042;9.092;2023-05-10T07:11:28;98646.06;;;18.74;62.39
15604;BME280;7902;49.042;9.092;2023-05-10T07:13:54;98654.06;;;18.74;62.02
15604;BME280;7902;49.042;9.092;2023-05-10T07:16:20;98655.00;;;18.81;62.08
15604;BME280;7902;49.042;9.092;2023-05-10T07:18:47;98653.81;;;18.83;62.12
15604;BME280;7902;49.042;9.092;2023-05-10T07:21:13;98650.38;;;18.75;62.02
15604;BME280;7902;49.042;9.092;2023-05-10T07:23:38;98653.69;;;18.77;61.54
15604;BME280;7902;49.042;9.092;2023-05-10T07:26:04;98657.13;;;18.85;61.18
15604;BME280;7902;49.042;9.092;2023-05-10T07:28:30;98657.66;;;18.81;61.74
15604;BME280;7902;49.042;9.092;2023-05-10T07:30:56;98659.78;;;18.85;61.79
15604;BME280;7902;49.042;9.092;2023-05-10T07:33:22;98656.31;;;18.85;61.86
15604;BME280;7902;49.042;9.092;2023-05-10T07:35:49;98658.44;;;18.90;60.87
15604;BME280;7902;49.042;9.092;2023-05-10T07:38:15;98659.88;;;19.00;61.33
15604;BME280;7902;49.042;9.092;2023-05-10T07:40:41;98662.91;;;18.97;61.13
15604;BME280;7902;49.042;9.092;2023-05-10T07:43:07;98663.72;;;18.98;61.13
15604;BME280;7902;49.042;9.092;2023-05-10T07:45:33;98655.56;;;18.99;61.56
15604;BME280;7902;49.042;9.092;2023-05-10T07:47:59;98661.06;;;18.98;61.23
15604;BME280;7902;49.042;9.092;2023-05-10T07:50:25;98666.22;;;18.99;61.19
15604;BME280;7902;49.042;9.092;2023-05-10T07:52:51;98659.72;;;19.02;60.39
15604;BME280;7902;49.042;9.092;2023-05-10T07:55:18;98666.91;;;18.93;60.79
15604;BME280;7902;49.042;9.092;2023-05-10T07:57:44;98664.00;;;19.11;60.45
15604;BME280;7902;49.042;9.092;2023-05-10T08:00:12;98667.34;;;19.05;60.72
15604;BME280;7902;49.042;9.092;2023-05-10T08:02:39;98666.59;;;19.19;60.48
15604;BME280;7902;49.042;9.092;2023-05-10T08:05:05;98675.03;;;19.22;59.95
15604;BME280;7902;49.042;9.092;2023-05-10T08:07:31;98669.91;;;19.21;60.27
15604;BME280;7902;49.042;9.092;2023-05-10T08:09:57;98665.09;;;19.16;60.41
15604;BME280;7902;49.042;9.092;2023-05-10T08:12:23;98675.88;;;19.23;59.69
15604;BME280;7902;49.042;9.092;2023-05-10T08:14:48;98673.22;;;19.23;60.62
15604;BME280;7902;49.042;9.092;2023-05-10T08:17:14;98674.19;;;19.30;60.04
15604;BME280;7902;49.042;9.092;2023-05-10T08:19:40;98679.22;;;19.17;60.36
15604;BME280;7902;49.042;9.092;2023-05-10T08:22:06;98682.34;;;19.28;60.15
15604;BME280;7902;49.042;9.092;2023-05-10T08:24:32;98678.91;;;19.20;60.03
15604;BME280;7902;49.042;9.092;2023-05-10T08:27:00;98684.53;;;19.25;59.12
15604;BME280;7902;49.042;9.092;2023-05-10T08:29:26;98685.22;;;19.19;59.67
15604;BME280;7902;49.042;9.092;2023-05-10T08:31:52;98688.09;;;19.09;60.16
15604;BME280;7902;49.042;9.092;2023-05-10T08:34:18;98696.19;;;19.24;59.36
15604;BME280;7902;49.042;9.092;2023-05-10T08:36:43;98701.88;;;19.13;59.91
15604;BME280;7902;49.042;9.092;2023-05-10T08:39:10;98696.88;;;19.18;60.04
15604;BME280;7902;49.042;9.092;2023-05-10T08:41:39;98701.56;;;19.08;59.47
15604;BME280;7902;49.042;9.092;2023-05-10T08:44:07;98699.28;;;19.05;60.21
15604;BME280;7902;49.042;9.092;2023-05-10T08:46:34;98708.88;;;19.14;60.32
15604;BME280;7902;49.042;9.092;2023-05-10T08:49:06;98709.84;;;19.21;59.95
15604;BME280;7902;49.042;9.092;2023-05-10T08:51:36;98709.41;;;19.09;60.58
15604;BME280;7902;49.042;9.092;2023-05-10T08:54:03;98704.53;;;19.13;60.72
15604;BME280;7902;49.042;9.092;2023-05-10T08:56:29;98700.06;;;19.13;61.28
15604;BME280;7902;49.042;9.092;2023-05-10T08:58:56;98712.19;;;19.16;61.26
15604;BME280;7902;49.042;9.092;2023-05-10T09:01:22;98707.22;;;19.13;61.10
15604;BME280;7902;49.042;9.092;2023-05-10T09:03:48;98713.00;;;19.16;61.74
15604;BME280;7902;49.042;9.092;2023-05-10T09:06:15;98717.63;;;19.22;61.99
15604;BME280;7902;49.042;9.092;2023-05-10T09:08:42;98713.81;;;19.25;62.82
15604;BME280;7902;49.042;9.092;2023-05-10T09:11:09;98720.59;;;19.27;62.48
15604;BME280;7902;49.042;9.092;2023-05-10T09:13:36;98727.16;;;19.17;61.40
15604;BME280;7902;49.042;9.092;2023-05-10T09:16:05;98730.72;;;19.32;60.80
15604;BME280;7902;49.042;9.092;2023-05-10T09:18:31;98723.41;;;19.34;61.18
15604;BME280;7902;49.042;9.092;2023-05-10T09:20:57;98729.56;;;19.35;60.74
15604;BME280;7902;49.042;9.092;2023-05-10T09:23:23;98730.34;;;19.43;60.91
15604;BME280;7902;49.042;9.092;2023-05-10T09:26:06;98726.06;;;19.34;61.54
15604;BME280;7902;49.042;9.092;2023-05-10T09:28:33;98727.38;;;19.38;60.62
15604;BME280;7902;49.042;9.092;2023-05-10T09:31:00;98722.22;;;19.37;61.23
15604;BME280;7902;49.042;9.092;2023-05-10T09:33:26;98728.72;;;19.34;61.34
15604;BME280;7902;49.042;9.092;2023-05-10T09:35:52;98731.84;;;19.38;61.09
15604;BME280;7902;49.042;9.092;2023-05-10T09:38:18;98723.69;;;19.47;61.33
15604;BME280;7902;49.042;9.092;2023-05-10T09:40:51;98725.88;;;19.36;62.50
15604;BME280;7902;49.042;9.092;2023-05-10T09:43:20;98734.34;;;19.39;61.65
15604;BME280;7902;49.042;9.092;2023-05-10T09:45:48;98728.16;;;19.47;61.89
15604;BME280;7902;49.042;9.092;2023-05-10T09:48:15;98727.28;;;19.54;62.46
15604;BME280;7902;49.042;9.092;2023-05-10T09:50:41;98730.50;;;19.42;61.41
15604;BME280;7902;49.042;9.092;2023-05-10T09:53:07;98720.94;;;19.55;61.76
15604;BME280;7902;49.042;9.092;2023-05-10T09:55:44;98722.75;;;19.63;60.96
15604;BME280;7902;49.042;9.092;2023-05-10T09:58:12;98726.41;;;19.62;61.24
15604;BME280;7902;49.042;9.092;2023-05-10T10:00:43;98728.06;;;19.63;60.83
15604;BME280;7902;49.042;9.092;2023-05-10T10:03:14;98730.84;;;19.47;60.09
15604;BME280;7902;49.042;9.092;2023-05-10T10:05:41;98738.22;;;19.59;60.13
15604;BME280;7902;49.042;9.092;2023-05-10T10:08:11;98751.13;;;19.48;60.19
15604;BME280;7902;49.042;9.092;2023-05-10T10:10:37;98752.81;;;19.49;60.87
15604;BME280;7902;49.042;9.092;2023-05-10T10:13:06;98756.25;;;18.88;62.17
15604;BME280;7902;49.042;9.092;2023-05-10T10:15:33;98749.88;;;19.27;61.29
15604;BME280;7902;49.042;9.092;2023-05-10T10:17:59;98752.03;;;19.32;61.36
15604;BME280;7902;49.042;9.092;2023-05-10T10:20:27;98756.19;;;19.35;61.66
15604;BME280;7902;49.042;9.092;2023-05-10T10:22:53;98756.72;;;19.22;61.96
15604;BME280;7902;49.042;9.092;2023-05-10T10:25:20;98748.78;;;19.14;61.28
15604;BME280;7902;49.042;9.092;2023-05-10T10:36:12;98732.84;;;19.37;60.55
15604;BME280;7902;49.042;9.092;2023-05-10T10:41:35;98742.22;;;19.33;60.59
15604;BME280;7902;49.042;9.092;2023-05-10T10:54:50;98745.19;;;19.07;61.00
15604;BME280;7902;49.042;9.092;2023-05-10T10:57:18;98741.44;;;19.24;60.96
15604;BME280;7902;49.042;9.092;2023-05-10T10:59:45;98742.47;;;19.15;60.79
15604;BME280;7902;49.042;9.092;2023-05-10T11:03:13;98743.72;;;19.27;60.37
15604;BME280;7902;49.042;9.092;2023-05-10T11:07:56;98744.66;;;19.11;60.41
15604;BME280;7902;49.042;9.092;2023-05-10T11:10:23;98746.59;;;19.17;60.35
15604;BME280;7902;49.042;9.092;2023-05-10T11:13:05;98743.78;;;19.19;60.12
15604;BME280;7902;49.042;9.092;2023-05-10T11:15:33;98744.44;;;19.21;60.96
15604;BME280;7902;49.042;9.092;2023-05-10T11:18:00;98752.72;;;19.26;60.93
15604;BME280;7902;49.042;9.092;2023-05-10T11:20:41;98748.56;;;19.23;60.49
15604;BME280;7902;49.042;9.092;2023-05-10T11:23:12;98747.00;;;19.37;59.91
15604;BME280;7902;49.042;9.092;2023-05-10T11:25:45;98752.03;;;19.32;60.05
15604;BME280;7902;49.042;9.092;2023-05-10T11:28:12;98751.97;;;19.48;60.04
15604;BME280;7902;49.042;9.092;2023-05-10T11:30:39;98746.97;;;19.45;60.74
15604;BME280;7902;49.042;9.092;2023-05-10T11:33:06;98747.59;;;19.55;60.70
15604;BME280;7902;49.042;9.092;2023-05-10T11:35:39;98744.81;;;19.41;60.82
15604;BME280;7902;49.042;9.092;2023-05-10T11:38:12;98745.22;;;19.60;59.07
15604;BME280;7902;49.042;9.092;2023-05-10T11:40:38;98740.97;;;19.51;60.17
15604;BME280;7902;49.042;9.092;2023-05-10T11:43:05;98751.44;;;19.53;59.46
15604;BME280;7902;49.042;9.092;2023-05-10T11:45:34;98757.53;;;19.61;59.32
15604;BME280;7902;49.042;9.092;2023-05-10T11:48:01;98764.22;;;19.57;59.72
15604;BME280;7902;49.042;9.092;2023-05-10T11:50:28;98765.47;;;19.69;59.03
15604;BME280;7902;49.042;9.092;2023-05-10T11:52:55;98762.41;;;19.58;59.15
15604;BME280;7902;49.042;9.092;2023-05-10T11:55:22;98762.56;;;19.56;59.11
15604;BME280;7902;49.042;9.092;2023-05-10T11:57:51;98766.38;;;19.62;58.38
15604;BME280;7902;49.042;9.092;2023-05-10T12:00:17;98764.03;;;19.59;57.09
15604;BME280;7902;49.042;9.092;2023-05-10T12:02:43;98764.22;;;19.57;56.74
15604;BME280;7902;49.042;9.092;2023-05-10T12:05:10;98760.75;;;19.80;56.20
15604;BME280;7902;49.042;9.092;2023-05-10T12:07:36;98761.72;;;19.56;56.63
15604;BME280;7902;49.042;9.092;2023-05-10T12:10:10;98763.63;;;19.70;55.29
15604;BME280;7902;49.042;9.092;2023-05-10T12:12:45;98763.56;;;19.55;55.96
15604;BME280;7902;49.042;9.092;2023-05-10T12:15:19;98763.69;;;19.62;56.70
15604;BME280;7902;49.042;9.092;2023-05-10T12:17:46;98766.81;;;19.88;55.82
15604;BME280;7902;49.042;9.092;2023-05-10T12:20:16;98757.41;;;19.78;56.06
15604;BME280;7902;49.042;9.092;2023-05-10T12:22:53;98766.72;;;19.82;56.75
15604;BME280;7902;49.042;9.092;2023-05-10T12:25:23;98769.78;;;19.70;54.12
15604;BME280;7902;49.042;9.092;2023-05-10T12:27:53;98774.59;;;19.75;53.30
15604;BME280;7902;49.042;9.092;2023-05-10T12:30:27;98767.13;;;19.70;53.36
15604;BME280;7902;49.042;9.092;2023-05-10T12:32:53;98767.28;;;19.69;54.75
15604;BME280;7902;49.042;9.092;2023-05-10T12:35:19;98768.31;;;19.91;53.36
15604;BME280;7902;49.042;9.092;2023-05-10T12:37:52;98772.47;;;19.70;53.56
15604;BME280;7902;49.042;9.092;2023-05-10T12:40:18;98776.06;;;19.78;53.28
15604;BME280;7902;49.042;9.092;2023-05-10T12:42:44;98769.16;;;19.91;53.45
15604;BME280;7902;49.042;9.092;2023-05-10T12:45:11;98778.50;;;19.87;54.94
15604;BME280;7902;49.042;9.092;2023-05-10T12:47:37;98779.97;;;19.90;54.49
15604;BME280;7902;49.042;9.092;2023-05-10T12:50:04;98778.63;;;19.94;53.57
15604;BME280;7902;49.042;9.092;2023-05-10T12:52:30;98785.53;;;20.03;53.03
15604;BME280;7902;49.042;9.092;2023-05-10T12:54:59;98783.34;;;20.06;53.70
15604;BME280;7902;49.042;9.092;2023-05-10T12:57:25;98787.06;;;19.97;53.47
15604;BME280;7902;49.042;9.092;2023-05-10T12:59:51;98781.56;;;19.99;54.15
15604;BME280;7902;49.042;9.092;2023-05-10T13:02:17;98779.91;;;19.98;54.34
15604;BME280;7902;49.042;9.092;2023-05-10T13:04:47;98786.91;;;19.99;53.47
15604;BME280;7902;49.042;9.092;2023-05-10T13:07:13;98777.19;;;20.06;53.81
15604;BME280;7902;49.042;9.092;2023-05-10T13:09:39;98782.66;;;20.27;54.90
15604;BME280;7902;49.042;9.092;2023-05-10T13:12:05;98783.22;;;20.23;54.81
15604;BME280;7902;49.042;9.092;2023-05-10T13:14:31;98779.50;;;20.09;54.22
15604;BME280;7902;49.042;9.092;2023-05-10T13:16:57;98778.84;;;20.07;53.77
15604;BME280;7902;49.042;9.092;2023-05-10T13:19:23;98781.91;;;20.19;53.67
15604;BME280;7902;49.042;9.092;2023-05-10T13:21:49;98775.28;;;20.14;54.35
15604;BME280;7902;49.042;9.092;2023-05-10T13:24:15;98781.09;;;20.18;53.20
15604;BME280;7902;49.042;9.092;2023-05-10T13:26:41;98779.66;;;20.30;53.25
15604;BME280;7902;49.042;9.092;2023-05-10T13:29:07;98783.69;;;20.26;53.92
15604;BME280;7902;49.042;9.092;2023-05-10T13:31:34;98766.75;;;20.19;53.48
15604;BME280;7902;49.042;9.092;2023-05-10T13:34:00;98770.78;;;20.15;54.37
15604;BME280;7902;49.042;9.092;2023-05-10T13:36:26;98775.03;;;20.24;54.03
15604;BME280;7902;49.042;9.092;2023-05-10T13:38:52;98769.31;;;20.12;53.27
15604;BME280;7902;49.042;9.092;2023-05-10T13:41:18;98779.50;;;20.32;53.11
15604;BME280;7902;49.042;9.092;2023-05-10T13:43:44;98776.94;;;20.15;52.34
15604;BME280;7902;49.042;9.092;2023-05-10T13:46:10;98772.44;;;20.16;52.86
15604;BME280;7902;49.042;9.092;2023-05-10T13:48:36;98774.00;;;20.25;52.29
15604;BME280;7902;49.042;9.092;2023-05-10T13:51:04;98773.47;;;20.15;51.05
15604;BME280;7902;49.042;9.092;2023-05-10T13:53:30;98766.75;;;20.19;52.64
15604;BME280;7902;49.042;9.092;2023-05-10T13:55:56;98767.59;;;20.20;52.70